createdAt,value
2022-11-15T00:02:25.487Z,7.19
2022-11-15T00:05:12.299Z,7.30
2022-11-15T00:07:59.399Z,6.92
2022-11-15T00:10:56.200Z,7.00
2022-11-15T00:13:42.955Z,7.05
2022-11-15T00:16:30.308Z,7.03
2022-11-15T00:19:17.498Z,6.65
2022-11-15T00:22:04.401Z,6.53
2022-11-15T00:24:51.259Z,6.39
2022-11-15T00:27:38.174Z,6.59
2022-11-15T00:30:25.333Z,6.66
2022-11-15T00:33:12.260Z,6.42
2022-11-15T00:36:12.007Z,6.49
2022-11-15T00:38:58.991Z,7.02
2022-11-15T00:41:45.767Z,7.01
2022-11-15T00:44:32.733Z,7.10
2022-11-15T00:47:19.880Z,7.13
2022-11-15T00:50:06.941Z,7.34
2022-11-15T00:52:53.558Z,6.86
2022-11-15T00:55:40.518Z,6.76
2022-11-15T00:58:27.200Z,6.72
2022-11-15T01:01:15.055Z,6.52
2022-11-15T01:04:01.837Z,6.84
2022-11-15T01:06:48.679Z,6.96
2022-11-15T01:09:35.390Z,6.74
2022-11-15T01:12:22.327Z,6.09
2022-11-15T01:15:09.557Z,6.15
2022-11-15T01:17:56.615Z,6.32
2022-11-15T01:20:43.557Z,6.88
2022-11-15T01:23:30.638Z,6.79
2022-11-15T01:26:17.451Z,6.25
2022-11-15T01:29:04.505Z,5.90
2022-11-15T01:31:51.399Z,6.50
2022-11-15T01:34:38.247Z,6.35
2022-11-15T01:37:25.131Z,6.88
2022-11-15T01:40:12.256Z,6.68
2022-11-15T01:42:58.794Z,6.34
2022-11-15T01:45:45.581Z,6.21
2022-11-15T01:48:34.691Z,6.52
2022-11-15T01:51:22.893Z,6.38
2022-11-15T01:54:13.386Z,6.49
2022-11-15T01:57:02.926Z,6.70
2022-11-15T01:59:49.546Z,6.83
2022-11-15T02:02:36.386Z,6.96
2022-11-15T02:05:23.395Z,6.82
2022-11-15T02:08:10.176Z,7.07
2022-11-15T02:10:57.249Z,6.82
2022-11-15T02:13:44.294Z,7.00
2022-11-15T02:16:48.279Z,6.66
2022-11-15T02:19:34.816Z,6.90
2022-11-15T02:23:04.128Z,6.49
2022-11-15T02:26:09.187Z,6.45
2022-11-15T02:29:06.129Z,6.34
2022-11-15T02:32:05.181Z,6.61
2022-11-15T02:34:53.236Z,6.84
2022-11-15T02:37:59.960Z,6.74
2022-11-15T02:41:02.913Z,6.73
2022-11-15T02:43:59.245Z,6.86
2022-11-15T02:47:16.716Z,6.48
2022-11-15T02:50:08.453Z,6.88
2022-11-15T02:52:55.486Z,7.01
2022-11-15T02:55:46.747Z,6.90
2022-11-15T02:59:10.159Z,6.85
2022-11-15T03:02:30.634Z,6.24
2022-11-15T03:05:52.193Z,6.70
2022-11-15T03:08:56.829Z,6.48
2022-11-15T03:11:47.902Z,6.62
2022-11-15T03:14:37.966Z,5.96
2022-11-15T03:18:01.477Z,6.32
2022-11-15T03:20:48.423Z,6.36
2022-11-15T03:23:35.853Z,6.29
2022-11-15T03:26:23.024Z,5.74
2022-11-15T03:29:19.529Z,5.62
2022-11-15T03:32:32.916Z,5.50
2022-11-15T03:35:24.343Z,5.95
2022-11-15T03:38:27.388Z,5.91
2022-11-15T03:41:29.553Z,6.20
2022-11-15T03:44:46.809Z,6.19
2022-11-15T03:47:41.653Z,5.79
2022-11-15T03:50:28.633Z,6.11
2022-11-15T03:53:15.377Z,6.24
2022-11-15T03:56:02.297Z,6.43
2022-11-15T03:58:49.318Z,6.22
2022-11-15T04:01:36.174Z,5.88
2022-11-15T04:04:23.008Z,5.40
2022-11-15T04:07:09.908Z,5.64
2022-11-15T04:10:06.592Z,5.76
2022-11-15T04:12:53.153Z,5.86
2022-11-15T04:15:39.999Z,5.54
2022-11-15T04:18:26.839Z,5.30
2022-11-15T04:21:48.608Z,4.99
2022-11-15T04:24:35.453Z,4.36
2022-11-15T04:27:22.294Z,4.66
2022-11-15T04:30:09.930Z,4.32
2022-11-15T04:32:56.796Z,4.08
2022-11-15T04:35:43.996Z,4.22
2022-11-15T04:38:30.733Z,4.19
2022-11-15T04:41:17.382Z,4.47
2022-11-15T04:44:04.142Z,3.94
2022-11-15T04:46:51.109Z,4.32
2022-11-15T04:49:37.701Z,3.95
2022-11-15T04:52:24.679Z,4.47
2022-11-15T04:55:12.103Z,3.80
2022-11-15T04:58:02.486Z,4.25
2022-11-15T05:00:49.292Z,4.14
2022-11-15T05:03:54.538Z,3.92
2022-11-15T05:06:41.891Z,4.51
2022-11-15T05:09:28.642Z,4.52
2022-11-15T05:12:15.536Z,4.76
2022-11-15T05:15:02.609Z,5.12
2022-11-15T05:17:49.410Z,5.11
2022-11-15T05:20:36.335Z,5.38
2022-11-15T05:23:23.404Z,4.70
2022-11-15T05:26:10.443Z,4.41
2022-11-15T05:28:58.278Z,4.74
2022-11-15T05:31:45.270Z,5.39
2022-11-15T05:34:31.903Z,4.73
2022-11-15T05:37:18.890Z,4.32
2022-11-15T05:40:06.215Z,4.09
2022-11-15T05:42:52.982Z,4.24
2022-11-15T05:45:40.261Z,4.09
2022-11-15T05:48:27.207Z,4.26
2022-11-15T05:51:14.222Z,4.15
2022-11-15T05:54:00.902Z,4.43
2022-11-15T05:56:47.788Z,4.34
2022-11-15T05:59:34.727Z,4.68
2022-11-15T06:02:21.596Z,4.18
2022-11-15T06:05:08.610Z,4.34
2022-11-15T06:07:59.473Z,4.58
2022-11-15T06:10:46.465Z,4.60
2022-11-15T06:13:34.312Z,4.32
2022-11-15T06:16:21.475Z,4.57
2022-11-15T06:19:10.769Z,5.16
2022-11-15T06:21:57.747Z,4.85
2022-11-15T06:24:45.297Z,4.96
2022-11-15T06:27:32.196Z,4.50
2022-11-15T06:30:18.928Z,4.79
2022-11-15T06:33:06.290Z,4.55
2022-11-15T06:35:53.507Z,4.15
2022-11-15T06:38:40.244Z,4.45
2022-11-15T06:41:27.278Z,4.99
2022-11-15T06:44:14.252Z,5.06
2022-11-15T06:47:01.286Z,5.30
2022-11-15T06:49:48.506Z,4.74
2022-11-15T06:52:35.360Z,4.85
2022-11-15T06:55:22.371Z,4.54
2022-11-15T06:58:09.407Z,5.14
2022-11-15T07:01:00.555Z,5.11
2022-11-15T07:03:47.408Z,5.03
2022-11-15T07:06:34.452Z,5.21
2022-11-15T07:09:21.301Z,4.95
2022-11-15T07:12:08.290Z,4.74
2022-11-15T07:14:55.246Z,5.39
2022-11-15T07:17:42.374Z,5.01
2022-11-15T07:20:28.921Z,4.80
2022-11-15T07:23:15.733Z,5.15
2022-11-15T07:26:02.798Z,4.84
2022-11-15T07:28:49.566Z,4.39
2022-11-15T07:31:36.778Z,5.06
2022-11-15T07:34:24.958Z,4.84
2022-11-15T07:37:12.128Z,5.19
2022-11-15T07:39:58.725Z,5.16
2022-11-15T07:42:55.062Z,5.03
2022-11-15T07:45:45.494Z,4.98
2022-11-15T07:48:43.438Z,4.86
2022-11-15T07:51:31.325Z,4.96
2022-11-15T07:54:18.145Z,4.89
2022-11-15T07:57:07.482Z,5.16
2022-11-15T07:59:54.995Z,5.19
2022-11-15T08:02:42.591Z,5.34
2022-11-15T08:05:29.662Z,5.14
2022-11-15T08:08:16.606Z,5.21
2022-11-15T08:11:03.558Z,5.76
2022-11-15T08:13:50.492Z,5.52
2022-11-15T08:16:37.467Z,5.55
2022-11-15T08:19:24.356Z,5.29
2022-11-15T08:22:11.137Z,5.11
2022-11-15T08:24:58.076Z,5.44
2022-11-15T08:27:45.413Z,5.62
2022-11-15T08:30:32.278Z,5.82
2022-11-15T08:33:18.966Z,5.53
2022-11-15T08:36:06.038Z,5.71
2022-11-15T08:38:52.903Z,5.81
2022-11-15T08:41:39.478Z,6.13
2022-11-15T08:44:26.639Z,6.32
2022-11-15T08:47:13.785Z,6.43
2022-11-15T08:50:00.642Z,6.20
2022-11-15T08:52:49.393Z,6.00
2022-11-15T08:55:39.462Z,5.73
2022-11-15T08:58:26.165Z,5.63
2022-11-15T09:01:19.964Z,5.90
2022-11-15T09:04:07.002Z,6.17
2022-11-15T09:06:53.729Z,6.66
2022-11-15T09:09:40.630Z,6.50
2022-11-15T09:12:27.649Z,6.82
2022-11-15T09:15:14.621Z,6.36
2022-11-15T09:18:01.697Z,6.51
2022-11-15T09:20:48.535Z,7.01
2022-11-15T09:23:35.491Z,6.68
2022-11-15T09:26:22.521Z,6.52
2022-11-15T09:29:09.301Z,6.86
2022-11-15T09:31:56.291Z,6.81
2022-11-15T09:34:43.225Z,6.96
2022-11-15T09:37:30.460Z,6.93
2022-11-15T09:40:18.710Z,7.43
2022-11-15T09:43:42.234Z,6.82
2022-11-15T09:46:58.101Z,5.84
2022-11-15T09:49:27.200Z,6.73
2022-11-15T09:52:18.615Z,6.71
2022-11-15T09:54:54.286Z,6.37
2022-11-15T09:57:51.469Z,6.73
2022-11-15T10:00:45.415Z,6.52
2022-11-15T10:03:14.278Z,6.73
2022-11-15T10:05:49.835Z,6.77
2022-11-15T10:08:22.677Z,6.54
2022-11-15T10:11:35.540Z,6.99
2022-11-15T10:13:51.529Z,7.10
2022-11-15T10:16:39.990Z,6.76
2022-11-15T10:19:40.045Z,6.90
2022-11-15T10:22:31.055Z,6.93
2022-11-15T10:25:17.569Z,7.26
2022-11-15T10:27:54.333Z,7.19
2022-11-15T10:30:23.151Z,7.18
2022-11-15T10:32:51.492Z,6.90
2022-11-15T10:35:22.508Z,7.19
2022-11-15T10:37:51.832Z,6.77
2022-11-15T10:40:24.569Z,7.59
2022-11-15T10:43:19.241Z,7.90
2022-11-15T10:45:47.759Z,7.56
2022-11-15T10:48:16.058Z,7.84
2022-11-15T10:50:45.755Z,7.97
2022-11-15T10:53:27.325Z,7.84
2022-11-15T10:55:59.161Z,7.58
2022-11-15T10:58:41.238Z,7.82
2022-11-15T11:01:17.156Z,7.88
2022-11-15T11:04:01.290Z,7.81
2022-11-15T11:06:29.829Z,8.07
2022-11-15T11:09:03.237Z,8.24
2022-11-15T11:11:47.574Z,8.52
2022-11-15T11:14:35.935Z,8.55
2022-11-15T11:17:42.071Z,8.19
2022-11-15T11:20:22.622Z,8.23
2022-11-15T11:23:15.362Z,7.42
2022-11-15T11:26:08.583Z,7.58
2022-11-15T11:28:56.050Z,7.33
2022-11-15T11:31:52.450Z,7.49
2022-11-15T11:34:51.810Z,7.98
2022-11-15T11:37:32.776Z,7.94
2022-11-15T11:40:23.739Z,8.05
2022-11-15T11:43:02.822Z,7.83
2022-11-15T11:45:56.162Z,8.00
2022-11-15T11:48:27.409Z,7.76
2022-11-15T11:51:07.191Z,8.06
2022-11-15T11:53:43.756Z,8.09
2022-11-15T11:56:39.447Z,8.01
2022-11-15T11:59:43.046Z,7.52
2022-11-15T12:02:33.873Z,8.12
2022-11-15T12:05:35.444Z,8.40
2022-11-15T12:08:17.296Z,7.39
2022-11-15T12:10:47.329Z,7.54
2022-11-15T12:13:18.634Z,7.31
2022-11-15T12:15:54.328Z,7.70
2022-11-15T12:18:22.829Z,8.12
2022-11-15T12:21:06.592Z,8.03
2022-11-15T12:23:41.116Z,8.27
2022-11-15T12:26:18.490Z,8.45
2022-11-15T12:29:09.248Z,8.49
2022-11-15T12:31:42.621Z,7.74
2022-11-15T12:34:23.417Z,7.61
2022-11-15T12:36:52.125Z,7.64
2022-11-15T12:39:20.693Z,8.07
2022-11-15T12:41:57.998Z,7.28
2022-11-15T12:44:32.880Z,7.82
2022-11-15T12:47:08.332Z,8.08
2022-11-15T12:49:36.630Z,7.78
2022-11-15T12:52:07.219Z,8.32
2022-11-15T12:54:41.685Z,8.31
2022-11-15T12:57:12.770Z,8.55
2022-11-15T13:00:06.073Z,8.66
2022-11-15T13:02:48.772Z,8.84
2022-11-15T13:05:17.564Z,8.24
2022-11-15T13:07:45.978Z,8.61
2022-11-15T13:10:14.211Z,8.88
2022-11-15T13:12:45.670Z,8.75
2022-11-15T13:15:14.015Z,8.18
2022-11-15T13:17:49.279Z,8.45
2022-11-15T13:20:19.393Z,8.57
2022-11-15T13:23:00.753Z,8.76
2022-11-15T13:25:41.170Z,8.97
2022-11-15T13:28:15.592Z,8.03
2022-11-15T13:30:55.618Z,8.18
2022-11-15T13:33:28.442Z,8.40
2022-11-15T13:36:15.761Z,8.53
2022-11-15T13:38:45.173Z,7.74
2022-11-15T13:41:24.603Z,8.21
2022-11-15T13:43:54.133Z,7.93
2022-11-15T13:46:27.965Z,7.51
2022-11-15T13:49:06.520Z,7.87
2022-11-15T13:51:37.877Z,8.16
2022-11-15T13:54:18.323Z,8.45
2022-11-15T13:56:54.168Z,8.23
2022-11-15T13:59:28.355Z,8.43
2022-11-15T14:01:58.160Z,8.57
2022-11-15T14:04:27.415Z,8.19
2022-11-15T14:06:57.838Z,8.13
2022-11-15T14:09:34.623Z,7.82
2022-11-15T14:12:04.396Z,7.94
2022-11-15T14:14:32.774Z,8.08
2022-11-15T14:17:01.663Z,7.87
2022-11-15T14:19:29.926Z,7.65
2022-11-15T14:22:18.470Z,8.33
2022-11-15T14:24:48.861Z,8.50
2022-11-15T14:27:24.693Z,8.18
2022-11-15T14:29:53.611Z,7.91
2022-11-15T14:32:27.223Z,7.76
2022-11-15T14:35:02.628Z,7.62
2022-11-15T14:37:36.067Z,7.66
2022-11-15T14:40:06.193Z,8.18
2022-11-15T14:42:34.544Z,7.93
2022-11-15T14:45:02.886Z,7.23
2022-11-15T14:47:31.183Z,7.66
2022-11-15T14:49:59.509Z,7.41
2022-11-15T14:52:35.511Z,7.49
2022-11-15T14:55:05.523Z,7.92
2022-11-15T14:57:33.923Z,8.14
2022-11-15T15:00:02.400Z,8.04
2022-11-15T15:02:42.252Z,8.18
2022-11-15T15:05:20.542Z,8.29
2022-11-15T15:07:49.106Z,7.58
2022-11-15T15:10:39.072Z,7.02
2022-11-15T15:13:06.660Z,7.48
2022-11-15T15:15:38.582Z,7.47
2022-11-15T15:18:09.821Z,7.48
2022-11-15T15:20:40.349Z,7.32
2022-11-15T15:23:19.629Z,7.61
2022-11-15T15:25:50.570Z,7.16
2022-11-15T15:28:18.936Z,7.18
2022-11-15T15:30:47.488Z,7.14
2022-11-15T15:33:15.875Z,6.85
2022-11-15T15:35:44.243Z,6.64
2022-11-15T15:38:13.502Z,7.45
2022-11-15T15:40:42.014Z,7.65
2022-11-15T15:43:10.634Z,7.10
2022-11-15T15:45:41.328Z,6.98
2022-11-15T15:48:14.109Z,7.13
2022-11-15T15:50:44.141Z,7.18
2022-11-15T15:53:15.510Z,7.33
2022-11-15T15:55:45.128Z,7.29
2022-11-15T15:58:13.471Z,7.40
2022-11-15T16:00:41.957Z,7.47
2022-11-15T16:03:10.518Z,7.68
2022-11-15T16:05:39.364Z,7.43
2022-11-15T16:08:23.375Z,7.82
2022-11-15T16:10:52.349Z,7.76
2022-11-15T16:13:23.389Z,7.70
2022-11-15T16:15:54.172Z,8.02
2022-11-15T16:18:22.669Z,7.73
2022-11-15T16:20:53.562Z,8.00
2022-11-15T16:23:24.849Z,7.99
2022-11-15T16:25:56.984Z,8.11
2022-11-15T16:28:30.003Z,8.08
2022-11-15T16:31:19.508Z,8.19
2022-11-15T16:33:47.963Z,8.17
2022-11-15T16:36:30.537Z,8.16
2022-11-15T16:39:00.091Z,8.02
2022-11-15T16:41:31.757Z,8.24
2022-11-15T16:44:00.700Z,7.93
2022-11-15T16:46:30.211Z,7.90
2022-11-15T16:48:59.601Z,8.01
2022-11-15T16:51:31.357Z,7.99
2022-11-15T16:54:08.908Z,8.12
2022-11-15T16:56:37.302Z,8.06
2022-11-15T16:59:06.784Z,7.85
2022-11-15T17:01:36.258Z,7.66
2022-11-15T17:04:19.444Z,7.15
2022-11-15T17:06:48.995Z,7.54
2022-11-15T17:09:19.466Z,7.66
2022-11-15T17:11:48.045Z,7.80
2022-11-15T17:14:17.295Z,7.85
2022-11-15T17:16:45.832Z,7.93
2022-11-15T17:19:19.051Z,8.01
2022-11-15T17:21:52.678Z,8.06
2022-11-15T17:24:21.422Z,8.01
2022-11-15T17:26:53.688Z,7.83
2022-11-15T17:29:22.830Z,7.88
2022-11-15T17:31:51.475Z,7.96
2022-11-15T17:34:20.001Z,7.94
2022-11-15T17:36:49.529Z,7.83
2022-11-15T17:39:19.927Z,7.96
2022-11-15T17:41:49.657Z,7.87
2022-11-15T17:44:19.531Z,7.92
2022-11-15T17:46:47.986Z,7.92
2022-11-15T17:49:17.785Z,8.04
2022-11-15T17:51:49.954Z,8.00
2022-11-15T17:54:19.959Z,7.84
2022-11-15T17:56:49.387Z,7.97
2022-11-15T17:59:21.704Z,7.99
2022-11-15T18:01:57.765Z,7.87
2022-11-15T18:04:28.585Z,7.86
2022-11-15T18:06:57.933Z,7.80
2022-11-15T18:09:27.853Z,7.62
2022-11-15T18:11:59.449Z,7.84
2022-11-15T18:14:27.924Z,7.86
2022-11-15T18:16:56.807Z,7.24
2022-11-15T18:19:25.358Z,7.59
2022-11-15T18:21:56.870Z,7.48
2022-11-15T18:24:30.496Z,7.43
2022-11-15T18:27:00.736Z,7.30
2022-11-15T18:29:29.357Z,7.29
2022-11-15T18:31:59.169Z,6.73
2022-11-15T18:34:34.034Z,6.74
2022-11-15T18:37:03.773Z,7.25
2022-11-15T18:39:32.389Z,6.76
2022-11-15T18:42:05.346Z,6.78
2022-11-15T18:44:33.849Z,6.58
2022-11-15T18:47:04.376Z,5.95
2022-11-15T18:49:33.284Z,6.55
2022-11-15T18:52:04.853Z,7.16
2022-11-15T18:54:35.104Z,7.33
2022-11-15T18:57:03.793Z,7.41
2022-11-15T18:59:32.936Z,7.46
2022-11-15T19:02:01.222Z,7.50
2022-11-15T19:04:29.738Z,7.23
2022-11-15T19:06:58.415Z,7.40
2022-11-15T19:09:33.865Z,7.71
2022-11-15T19:12:02.619Z,7.61
2022-11-15T19:14:35.757Z,7.58
2022-11-15T19:17:06.764Z,7.71
2022-11-15T19:19:35.173Z,7.64
2022-11-15T19:22:03.784Z,7.44
2022-11-15T19:24:33.087Z,7.43
2022-11-15T19:27:02.052Z,7.19
2022-11-15T19:29:30.786Z,7.07
2022-11-15T19:31:59.589Z,7.06
2022-11-15T19:34:29.216Z,7.34
2022-11-15T19:36:57.637Z,7.30
2022-11-15T19:39:26.657Z,7.54
2022-11-15T19:41:55.639Z,7.54
2022-11-15T19:44:26.617Z,7.29
2022-11-15T19:46:54.999Z,7.43
2022-11-15T19:49:23.826Z,7.37
2022-11-15T19:51:54.930Z,7.26
2022-11-15T19:54:26.720Z,7.51
2022-11-15T19:56:55.335Z,7.56
2022-11-15T19:59:23.697Z,7.51
2022-11-15T20:01:52.357Z,7.14
2022-11-15T20:04:20.927Z,7.25
2022-11-15T20:06:49.336Z,7.29
2022-11-15T20:09:18.158Z,6.78
2022-11-15T20:11:46.546Z,6.84
2022-11-15T20:14:18.317Z,6.16
2022-11-15T20:16:52.930Z,6.17
2022-11-15T20:19:22.940Z,6.41
2022-11-15T20:21:51.322Z,6.77
2022-11-15T20:24:19.746Z,6.21
2022-11-15T20:26:53.348Z,6.73
2022-11-15T20:29:21.825Z,6.42
2022-11-15T20:31:51.568Z,6.25
2022-11-15T20:34:19.858Z,6.29
2022-11-15T20:36:48.167Z,6.07
2022-11-15T20:39:16.640Z,6.25
2022-11-15T20:41:45.737Z,6.73
2022-11-15T20:44:14.910Z,5.70
2022-11-15T20:46:43.400Z,6.55
2022-11-15T20:49:12.000Z,6.68
2022-11-15T20:51:40.498Z,6.93
2022-11-15T20:54:09.234Z,6.96
2022-11-15T20:56:37.780Z,6.79
2022-11-15T20:59:06.130Z,6.88
2022-11-15T21:01:34.804Z,7.19
2022-11-15T21:04:03.463Z,6.75
2022-11-15T21:06:34.327Z,6.81
2022-11-15T21:09:21.362Z,6.41
2022-11-15T21:12:08.931Z,6.68
2022-11-15T21:14:38.145Z,6.77
2022-11-15T21:17:06.959Z,6.79
2022-11-15T21:19:36.983Z,6.41
2022-11-15T21:22:06.012Z,6.82
2022-11-15T21:24:34.463Z,6.98
2022-11-15T21:27:03.957Z,6.86
2022-11-15T21:29:38.577Z,7.01
2022-11-15T21:32:07.833Z,7.06
2022-11-15T21:34:36.937Z,7.13
2022-11-15T21:37:05.589Z,6.88
2022-11-15T21:39:33.991Z,6.98
2022-11-15T21:42:03.202Z,7.05
2022-11-15T21:44:32.027Z,6.69
2022-11-15T21:47:00.619Z,6.63
2022-11-15T21:49:28.951Z,6.23
2022-11-15T21:51:57.461Z,6.23
2022-11-15T21:54:25.776Z,6.15
2022-11-15T21:56:54.118Z,5.85
2022-11-15T21:59:22.490Z,6.14
2022-11-15T22:02:09.456Z,6.16
2022-11-15T22:04:37.789Z,4.90
2022-11-15T22:07:06.134Z,5.49
2022-11-15T22:09:34.464Z,6.02
2022-11-15T22:12:02.904Z,5.73
2022-11-15T22:14:31.245Z,6.06
2022-11-15T22:16:59.517Z,6.23
2022-11-15T22:19:27.875Z,6.13
2022-11-15T22:21:56.348Z,6.47
2022-11-15T22:24:24.767Z,6.41
2022-11-15T22:26:53.176Z,6.55
2022-11-15T22:29:21.560Z,5.88
2022-11-15T22:31:49.917Z,5.81
2022-11-15T22:34:18.201Z,5.59
2022-11-15T22:37:18.258Z,5.76
2022-11-15T22:39:34.818Z,5.59
2022-11-15T22:42:03.167Z,5.79
2022-11-15T22:44:31.414Z,6.20
2022-11-15T22:46:59.754Z,6.45
2022-11-15T22:49:28.074Z,5.50
2022-11-15T22:51:56.319Z,5.90
2022-11-15T22:54:24.602Z,6.49
2022-11-15T22:56:53.689Z,6.24
2022-11-15T22:59:22.006Z,6.41
2022-11-15T23:01:51.221Z,6.66
2022-11-15T23:04:19.580Z,6.26
2022-11-15T23:06:48.035Z,6.42
2022-11-15T23:09:16.947Z,6.29
2022-11-15T23:12:03.677Z,6.27
2022-11-15T23:14:31.978Z,6.48
2022-11-15T23:17:00.347Z,6.10
2022-11-15T23:19:28.685Z,6.36
2022-11-15T23:22:15.380Z,6.47
2022-11-15T23:24:43.749Z,6.36
2022-11-15T23:27:15.426Z,6.38
2022-11-15T23:30:02.115Z,6.51
2022-11-15T23:32:49.343Z,6.59
2022-11-15T23:35:17.719Z,6.25
2022-11-15T23:37:46.185Z,6.25
2022-11-15T23:40:14.620Z,6.16
2022-11-15T23:42:43.032Z,6.01
2022-11-15T23:45:11.502Z,5.76
2022-11-15T23:47:39.811Z,5.90
2022-11-15T23:50:08.606Z,6.26
2022-11-15T23:52:36.907Z,6.07
2022-11-15T23:55:06.212Z,6.29
2022-11-15T23:57:34.535Z,6.40
